createdAt,value
2023-01-05T00:01:06.422Z,11.00
2023-01-05T00:03:33.100Z,11.00
2023-01-05T00:06:00.958Z,11.00
2023-01-05T00:08:32.937Z,10.90
2023-01-05T00:11:25.883Z,10.90
2023-01-05T00:14:11.091Z,10.90
2023-01-05T00:16:56.234Z,11.00
2023-01-05T00:19:41.280Z,11.00
2023-01-05T00:22:38.439Z,11.00
2023-01-05T00:25:12.251Z,11.00
2023-01-05T00:27:42.954Z,11.00
2023-01-05T00:30:10.889Z,11.00
2023-01-05T00:32:37.535Z,11.00
2023-01-05T00:35:04.394Z,11.00
2023-01-05T00:37:32.302Z,11.00
2023-01-05T00:39:59.006Z,11.00
2023-01-05T00:42:25.649Z,11.10
2023-01-05T00:44:52.272Z,11.00
2023-01-05T00:47:18.948Z,11.00
2023-01-05T00:49:45.563Z,11.00
2023-01-05T00:52:12.248Z,11.00
2023-01-05T00:54:38.869Z,11.00
2023-01-05T00:57:07.255Z,11.00
2023-01-05T00:59:33.912Z,10.90
2023-01-05T01:02:00.686Z,10.90
2023-01-05T01:04:27.453Z,10.90
2023-01-05T01:06:54.727Z,10.80
2023-01-05T01:09:21.444Z,10.80
2023-01-05T01:11:48.257Z,10.80
2023-01-05T01:14:14.885Z,10.90
2023-01-05T01:16:42.194Z,10.90
2023-01-05T01:19:10.180Z,10.90
2023-01-05T01:21:36.817Z,11.00
2023-01-05T01:24:03.469Z,11.00
2023-01-05T01:26:30.323Z,11.00
2023-01-05T01:28:58.062Z,11.00
2023-01-05T01:31:24.933Z,11.00
2023-01-05T01:33:51.723Z,11.00
2023-01-05T01:36:18.334Z,11.00
2023-01-05T01:38:44.976Z,11.00
2023-01-05T01:41:12.180Z,10.90
2023-01-05T01:43:49.799Z,10.80
2023-01-05T01:46:17.316Z,10.70
2023-01-05T01:48:56.641Z,10.70
2023-01-05T01:51:44.765Z,10.60
2023-01-05T01:54:13.209Z,10.60
2023-01-05T01:56:58.778Z,10.60
2023-01-05T01:59:25.392Z,10.60
2023-01-05T02:01:52.517Z,10.50
2023-01-05T02:04:19.663Z,10.50
2023-01-05T02:06:46.519Z,10.50
2023-01-05T02:09:13.330Z,10.50
2023-01-05T02:11:57.976Z,10.40
2023-01-05T02:14:43.228Z,10.40
2023-01-05T02:17:26.422Z,10.40
2023-01-05T02:20:17.082Z,10.50
2023-01-05T02:23:11.648Z,10.50
2023-01-05T02:26:15.832Z,10.50
2023-01-05T02:28:55.327Z,10.40
2023-01-05T02:31:25.281Z,10.50
2023-01-05T02:34:07.519Z,10.40
2023-01-05T02:36:36.734Z,10.30
2023-01-05T02:39:08.819Z,10.20
2023-01-05T02:41:38.786Z,10.10
2023-01-05T02:44:06.929Z,10.10
2023-01-05T02:46:33.591Z,10.10
2023-01-05T02:49:00.292Z,10.10
2023-01-05T02:51:33.615Z,10.10
2023-01-05T02:54:03.806Z,10.10
2023-01-05T02:56:42.889Z,10.10
2023-01-05T02:59:16.938Z,10.10
2023-01-05T03:01:49.021Z,10.10
2023-01-05T03:04:21.018Z,10.10
2023-01-05T03:06:56.642Z,10.10
2023-01-05T03:09:28.162Z,10.10
2023-01-05T03:12:20.031Z,10.00
2023-01-05T03:14:52.320Z,10.00
2023-01-05T03:17:24.772Z,10.00
2023-01-05T03:19:51.369Z,10.00
2023-01-05T03:22:44.751Z,10.10
2023-01-05T03:25:30.272Z,10.10
2023-01-05T03:28:15.173Z,10.10
2023-01-05T03:31:18.807Z,10.00
2023-01-05T03:34:20.182Z,10.10
2023-01-05T03:36:52.546Z,10.10
2023-01-05T03:39:19.324Z,10.10
2023-01-05T03:41:46.028Z,10.10
2023-01-05T03:44:12.644Z,10.10
2023-01-05T03:46:39.448Z,10.10
2023-01-05T03:49:06.102Z,10.20
2023-01-05T03:51:37.752Z,10.20
2023-01-05T03:54:07.981Z,10.20
2023-01-05T03:56:34.575Z,10.20
2023-01-05T03:59:01.287Z,10.20
2023-01-05T04:01:28.031Z,10.30
2023-01-05T04:03:54.724Z,10.20
2023-01-05T04:06:21.357Z,10.30
2023-01-05T04:08:47.968Z,10.30
2023-01-05T04:11:18.870Z,10.30
2023-01-05T04:13:45.538Z,10.30
2023-01-05T04:16:12.416Z,10.30
2023-01-05T04:18:39.043Z,10.20
2023-01-05T04:21:05.893Z,10.20
2023-01-05T04:23:32.752Z,10.20
2023-01-05T04:25:59.366Z,10.20
2023-01-05T04:28:26.002Z,10.20
2023-01-05T04:30:53.554Z,10.20
2023-01-05T04:33:20.551Z,10.20
2023-01-05T04:35:47.269Z,10.20
2023-01-05T04:38:13.995Z,10.20
2023-01-05T04:40:40.696Z,10.20
2023-01-05T04:43:07.427Z,10.20
2023-01-05T04:45:34.275Z,10.10
2023-01-05T04:48:01.005Z,10.20
2023-01-05T04:50:28.121Z,10.20
2023-01-05T04:52:54.739Z,10.20
2023-01-05T04:55:21.391Z,10.20
2023-01-05T04:57:48.027Z,10.20
2023-01-05T05:00:14.827Z,10.20
2023-01-05T05:02:41.567Z,10.10
2023-01-05T05:05:08.629Z,10.10
2023-01-05T05:07:35.332Z,10.10
2023-01-05T05:10:02.079Z,10.10
2023-01-05T05:12:28.745Z,10.10
2023-01-05T05:14:55.362Z,10.10
2023-01-05T05:17:22.225Z,10.10
2023-01-05T05:19:49.025Z,10.10
2023-01-05T05:22:15.867Z,10.10
2023-01-05T05:24:42.665Z,10.00
2023-01-05T05:27:09.283Z,10.00
2023-01-05T05:29:35.895Z,10.00
2023-01-05T05:32:02.537Z,10.00
2023-01-05T05:34:29.377Z,10.00
2023-01-05T05:36:56.012Z,10.10
2023-01-05T05:39:22.672Z,10.10
2023-01-05T05:41:49.288Z,10.10
2023-01-05T05:44:16.066Z,10.00
2023-01-05T05:46:42.722Z,10.00
2023-01-05T05:49:09.451Z,9.90
2023-01-05T05:51:36.107Z,9.90
2023-01-05T05:54:02.806Z,9.80
2023-01-05T05:56:30.342Z,9.70
2023-01-05T05:59:01.273Z,9.70
2023-01-05T06:01:29.049Z,9.70
2023-01-05T06:03:55.814Z,9.70
2023-01-05T06:06:22.434Z,9.70
2023-01-05T06:08:49.091Z,9.60
2023-01-05T06:11:15.724Z,9.60
2023-01-05T06:13:42.524Z,9.60
2023-01-05T06:16:09.254Z,9.50
2023-01-05T06:18:36.091Z,9.60
2023-01-05T06:21:02.749Z,9.70
2023-01-05T06:23:29.386Z,9.70
2023-01-05T06:25:56.003Z,9.70
2023-01-05T06:28:22.632Z,9.60
2023-01-05T06:30:49.271Z,9.70
2023-01-05T06:33:15.928Z,9.70
2023-01-05T06:35:42.572Z,9.70
2023-01-05T06:38:10.979Z,9.70
2023-01-05T06:40:39.504Z,9.70
2023-01-05T06:43:06.501Z,9.70
2023-01-05T06:45:33.225Z,9.70
2023-01-05T06:48:01.040Z,9.70
2023-01-05T06:50:27.757Z,9.70
2023-01-05T06:52:54.408Z,9.70
2023-01-05T06:55:21.911Z,9.70
2023-01-05T06:57:48.656Z,9.70
2023-01-05T07:00:16.706Z,9.80
2023-01-05T07:02:43.459Z,9.80
2023-01-05T07:05:10.246Z,9.80
2023-01-05T07:07:36.893Z,9.70
2023-01-05T07:10:04.063Z,9.80
2023-01-05T07:12:30.711Z,9.80
2023-01-05T07:14:57.986Z,9.80
2023-01-05T07:17:24.983Z,9.80
2023-01-05T07:19:51.628Z,9.90
2023-01-05T07:22:18.229Z,9.80
2023-01-05T07:24:45.293Z,9.90
2023-01-05T07:27:11.901Z,9.90
2023-01-05T07:29:38.542Z,9.90
2023-01-05T07:32:05.417Z,9.90
2023-01-05T07:34:32.161Z,9.90
2023-01-05T07:36:58.807Z,9.90
2023-01-05T07:39:25.460Z,9.90
2023-01-05T07:41:52.078Z,9.90
2023-01-05T07:44:18.740Z,9.80
2023-01-05T07:46:45.377Z,9.80
2023-01-05T07:49:12.099Z,9.70
2023-01-05T07:51:38.795Z,9.60
2023-01-05T07:54:05.492Z,9.60
2023-01-05T07:56:32.142Z,9.60
2023-01-05T07:58:59.262Z,9.70
2023-01-05T08:01:26.031Z,9.70
2023-01-05T08:03:52.961Z,9.70
2023-01-05T08:06:21.468Z,9.80
2023-01-05T08:08:48.179Z,9.80
2023-01-05T08:11:15.870Z,9.90
2023-01-05T08:14:02.956Z,9.90
2023-01-05T08:16:31.492Z,9.90
2023-01-05T08:18:58.937Z,9.90
2023-01-05T08:21:25.748Z,9.90
2023-01-05T08:23:53.316Z,10.00
2023-01-05T08:26:22.242Z,10.00
2023-01-05T08:28:49.109Z,10.10
2023-01-05T08:31:21.533Z,10.10
2023-01-05T08:33:48.255Z,10.10
2023-01-05T08:36:17.504Z,10.10
2023-01-05T08:38:49.891Z,10.10
2023-01-05T08:41:29.974Z,10.10
2023-01-05T08:43:58.115Z,10.10
2023-01-05T08:46:26.698Z,10.20
2023-01-05T08:48:55.064Z,10.20
2023-01-05T08:51:21.831Z,10.20
2023-01-05T08:53:48.636Z,10.20
2023-01-05T08:56:15.323Z,10.30
2023-01-05T08:58:42.069Z,10.30
2023-01-05T09:01:13.983Z,10.40
2023-01-05T09:03:40.962Z,10.30
2023-01-05T09:06:09.336Z,10.40
2023-01-05T09:08:36.074Z,10.40
2023-01-05T09:11:07.545Z,10.40
2023-01-05T09:13:34.610Z,10.40
2023-01-05T09:16:09.384Z,10.40
2023-01-05T09:18:36.545Z,10.50
2023-01-05T09:21:03.404Z,10.50
2023-01-05T09:23:30.096Z,10.50
2023-01-05T09:25:56.724Z,10.50
2023-01-05T09:28:23.548Z,10.60
2023-01-05T09:30:50.994Z,10.60
2023-01-05T09:33:18.090Z,10.60
2023-01-05T09:35:44.784Z,10.60
2023-01-05T09:38:11.478Z,10.60
2023-01-05T09:40:40.604Z,10.70
2023-01-05T09:43:07.452Z,10.70
2023-01-05T09:45:34.115Z,10.70
2023-01-05T09:48:00.773Z,10.70
2023-01-05T09:50:28.044Z,10.70
2023-01-05T09:52:57.294Z,10.70
2023-01-05T09:55:25.010Z,10.70
2023-01-05T09:58:10.706Z,10.70
2023-01-05T10:00:38.846Z,10.70
2023-01-05T10:03:29.191Z,10.70
2023-01-05T10:05:58.788Z,10.70
2023-01-05T10:08:35.255Z,10.70
2023-01-05T10:11:36.039Z,10.80
2023-01-05T10:14:07.001Z,10.80
2023-01-05T10:16:33.761Z,10.70
2023-01-05T10:19:01.688Z,10.70
2023-01-05T10:21:40.368Z,10.70
2023-01-05T10:24:28.161Z,10.70
2023-01-05T10:27:24.642Z,10.60
2023-01-05T10:30:22.231Z,10.60
2023-01-05T10:33:22.018Z,10.60
2023-01-05T10:36:28.068Z,10.60
2023-01-05T10:39:48.503Z,10.70
2023-01-05T10:42:45.515Z,10.60
2023-01-05T10:45:13.473Z,10.60
2023-01-05T10:47:40.200Z,10.60
2023-01-05T10:50:27.108Z,10.50
2023-01-05T10:52:54.612Z,10.50
2023-01-05T10:55:21.305Z,10.50
2023-01-05T10:57:47.991Z,10.60
2023-01-05T11:00:21.921Z,10.70
2023-01-05T11:02:59.613Z,10.80
2023-01-05T11:05:41.783Z,10.80
2023-01-05T11:08:16.829Z,10.80
2023-01-05T11:11:02.924Z,10.80
2023-01-05T11:13:45.946Z,10.80
2023-01-05T11:16:22.862Z,10.70
2023-01-05T11:18:54.289Z,10.80
2023-01-05T11:21:25.625Z,10.90
2023-01-05T11:23:55.847Z,11.10
2023-01-05T11:26:28.195Z,11.10
2023-01-05T11:28:58.206Z,11.10
2023-01-05T11:31:35.980Z,11.00
2023-01-05T11:34:08.328Z,11.00
2023-01-05T11:36:35.163Z,10.80
2023-01-05T11:39:01.801Z,10.80
2023-01-05T11:41:28.445Z,10.80
2023-01-05T11:43:55.071Z,10.70
2023-01-05T11:46:22.053Z,10.80
2023-01-05T11:48:52.424Z,10.80
2023-01-05T11:51:35.751Z,10.70
2023-01-05T11:54:02.363Z,10.70
2023-01-05T11:56:29.009Z,10.70
2023-01-05T11:58:57.887Z,10.70
2023-01-05T12:01:44.801Z,10.60
2023-01-05T12:04:32.840Z,10.50
2023-01-05T12:07:08.266Z,10.50
2023-01-05T12:09:39.657Z,10.40
2023-01-05T12:12:23.002Z,10.40
2023-01-05T12:15:16.023Z,10.40
2023-01-05T12:18:18.923Z,10.40
2023-01-05T12:21:17.087Z,10.40
2023-01-05T12:24:15.941Z,10.40
2023-01-05T12:26:49.278Z,10.50
2023-01-05T12:35:46.273Z,10.50
2023-01-05T12:38:41.113Z,10.50
2023-01-05T12:41:34.559Z,10.50
2023-01-05T12:44:28.986Z,10.60
2023-01-05T12:46:55.596Z,10.60
2023-01-05T12:49:25.708Z,10.70
2023-01-05T12:52:13.124Z,10.70
2023-01-05T12:54:50.834Z,10.90
2023-01-05T12:57:22.153Z,10.90
2023-01-05T13:00:11.962Z,10.90
2023-01-05T13:02:44.499Z,10.90
2023-01-05T13:05:27.609Z,11.10
2023-01-05T13:07:55.973Z,11.30
2023-01-05T13:10:44.603Z,11.50
2023-01-05T13:13:27.240Z,11.80
2023-01-05T13:16:04.160Z,11.90
2023-01-05T13:18:30.808Z,12.00
2023-01-05T13:21:06.900Z,11.90
2023-01-05T13:23:45.131Z,11.80
2023-01-05T13:26:17.941Z,11.60
2023-01-05T13:28:46.990Z,11.40
2023-01-05T13:31:51.289Z,11.30
2023-01-05T13:34:36.054Z,11.20
2023-01-05T13:37:08.433Z,11.10
2023-01-05T13:39:54.392Z,11.10
2023-01-05T13:42:40.027Z,11.00
2023-01-05T13:45:40.881Z,10.90
2023-01-05T13:51:27.802Z,10.70
2023-01-05T13:53:54.845Z,10.70
2023-01-05T13:56:28.448Z,10.60
2023-01-05T13:59:00.451Z,10.60
2023-01-05T14:01:43.689Z,10.50
2023-01-05T14:04:21.697Z,10.50
2023-01-05T14:06:50.037Z,10.50
2023-01-05T14:09:25.106Z,10.50
2023-01-05T14:12:15.855Z,10.40
2023-01-05T14:15:02.248Z,10.40
2023-01-05T14:17:50.968Z,10.40
2023-01-05T14:20:35.561Z,10.40
2023-01-05T14:23:05.196Z,10.40
2023-01-05T14:25:58.244Z,10.30
2023-01-05T14:28:31.058Z,10.30
2023-01-05T14:31:16.317Z,10.30
2023-01-05T14:33:50.639Z,10.30
2023-01-05T14:36:23.303Z,10.30
2023-01-05T14:38:49.915Z,10.30
2023-01-05T14:41:26.680Z,10.30
2023-01-05T14:44:17.800Z,10.20
2023-01-05T14:46:47.014Z,10.20
2023-01-05T14:49:25.178Z,10.20
2023-01-05T14:51:53.360Z,10.10
2023-01-05T14:54:43.276Z,10.10
2023-01-05T14:57:25.280Z,10.20
2023-01-05T15:00:26.579Z,10.10
2023-01-05T15:03:13.288Z,10.20
2023-01-05T15:05:55.521Z,10.20
2023-01-05T15:08:49.796Z,10.10
2023-01-05T15:11:26.732Z,10.10
2023-01-05T15:14:25.393Z,10.10
2023-01-05T15:17:30.804Z,10.20
2023-01-05T15:20:01.436Z,10.20
2023-01-05T15:22:55.711Z,10.20
2023-01-05T15:25:57.842Z,10.20
2023-01-05T15:29:02.292Z,10.20
2023-01-05T15:31:46.268Z,10.10
2023-01-05T15:34:24.635Z,10.20
2023-01-05T15:37:08.764Z,10.20
2023-01-05T15:39:45.417Z,10.20
2023-01-05T15:42:14.871Z,10.20
2023-01-05T15:44:44.752Z,10.10
2023-01-05T15:47:11.956Z,10.10
2023-01-05T15:49:39.853Z,10.10
2023-01-05T15:52:15.993Z,10.10
2023-01-05T15:54:42.687Z,10.10
2023-01-05T15:57:21.873Z,10.10
2023-01-05T15:59:48.633Z,10.10
2023-01-05T16:02:29.179Z,10.00
2023-01-05T16:05:16.249Z,10.10
2023-01-05T16:08:07.230Z,10.00
2023-01-05T16:10:55.880Z,10.10
2023-01-05T16:13:54.883Z,10.00
2023-01-05T16:16:51.019Z,10.10
2023-01-05T16:19:33.525Z,10.10
2023-01-05T16:22:13.617Z,10.10
2023-01-05T16:25:16.019Z,10.10
2023-01-05T16:27:44.503Z,10.10
2023-01-05T16:30:34.596Z,10.00
2023-01-05T16:33:22.620Z,10.00
2023-01-05T16:35:53.594Z,10.00
2023-01-05T16:38:27.794Z,10.00
2023-01-05T16:41:19.200Z,10.00
2023-01-05T16:43:50.859Z,10.00
2023-01-05T16:46:20.860Z,10.00
2023-01-05T16:49:12.367Z,10.00
2023-01-05T16:51:40.234Z,10.00
2023-01-05T16:54:19.070Z,9.90
2023-01-05T16:56:59.217Z,9.90
2023-01-05T16:59:34.802Z,9.90
2023-01-05T17:02:01.570Z,9.90
2023-01-05T17:04:29.382Z,9.80
2023-01-05T17:06:57.930Z,9.80
2023-01-05T17:09:26.104Z,9.80
2023-01-05T17:11:57.054Z,9.80
2023-01-05T17:14:23.807Z,9.70
2023-01-05T17:16:50.594Z,9.70
2023-01-05T17:19:18.878Z,9.60
2023-01-05T17:21:52.941Z,9.50
2023-01-05T17:24:19.559Z,9.50
2023-01-05T17:26:46.263Z,9.50
2023-01-05T17:29:24.322Z,9.50
2023-01-05T17:31:51.159Z,9.50
2023-01-05T17:34:17.921Z,9.40
2023-01-05T17:36:44.612Z,9.40
2023-01-05T17:39:14.623Z,9.40
2023-01-05T17:41:41.421Z,9.40
2023-01-05T17:44:08.084Z,9.40
2023-01-05T17:46:36.811Z,9.40
2023-01-05T17:49:03.796Z,9.30
2023-01-05T17:51:30.546Z,9.30
2023-01-05T17:53:57.985Z,9.40
2023-01-05T17:56:24.827Z,9.30
2023-01-05T17:58:51.489Z,9.30
2023-01-05T18:01:18.432Z,9.30
2023-01-05T18:03:45.180Z,9.20
2023-01-05T18:06:11.912Z,9.20
2023-01-05T18:08:38.772Z,9.20
2023-01-05T18:11:06.283Z,9.10
2023-01-05T18:13:33.572Z,9.10
2023-01-05T18:16:10.542Z,9.00
2023-01-05T18:18:37.275Z,9.00
2023-01-05T18:21:04.164Z,9.00
2023-01-05T18:23:31.028Z,9.00
2023-01-05T18:26:05.407Z,8.90
2023-01-05T18:28:32.009Z,8.90
2023-01-05T18:30:58.725Z,8.80
2023-01-05T18:33:25.377Z,8.80
2023-01-05T18:38:21.736Z,8.80
2023-01-05T18:40:51.111Z,8.80
2023-01-05T18:43:18.091Z,8.80
2023-01-05T18:45:45.365Z,8.80
2023-01-05T18:48:12.211Z,8.80
2023-01-05T18:50:44.349Z,8.70
2023-01-05T18:53:11.866Z,8.60
2023-01-05T18:55:41.855Z,8.50
2023-01-05T18:58:08.851Z,8.50
2023-01-05T19:00:35.600Z,8.50
2023-01-05T19:03:02.409Z,8.50
2023-01-05T19:05:29.080Z,8.50
2023-01-05T19:07:55.787Z,8.60
2023-01-05T19:10:22.389Z,8.60
2023-01-05T19:12:49.076Z,8.60
2023-01-05T19:15:15.847Z,8.60
2023-01-05T19:17:42.617Z,8.60
2023-01-05T19:20:09.631Z,8.50
2023-01-05T19:22:36.509Z,8.40
2023-01-05T19:25:05.640Z,8.40
2023-01-05T19:27:32.310Z,8.40
2023-01-05T19:29:58.948Z,8.30
2023-01-05T19:32:25.597Z,8.30
2023-01-05T19:34:52.227Z,8.30
2023-01-05T19:37:18.834Z,8.30
2023-01-05T19:39:45.455Z,8.40
2023-01-05T19:42:12.155Z,8.40
2023-01-05T19:44:38.976Z,8.40
2023-01-05T19:47:05.648Z,8.40
2023-01-05T19:49:32.259Z,8.50
2023-01-05T19:51:58.909Z,8.50
2023-01-05T19:54:26.252Z,8.60
2023-01-05T19:56:54.623Z,8.60
2023-01-05T19:59:24.419Z,8.60
2023-01-05T20:01:51.124Z,8.60
2023-01-05T20:04:18.115Z,8.50
2023-01-05T20:06:45.187Z,8.60
2023-01-05T20:09:17.033Z,8.50
2023-01-05T20:11:48.795Z,8.50
2023-01-05T20:14:25.202Z,8.50
2023-01-05T20:16:56.553Z,8.50
2023-01-05T20:19:23.996Z,8.50
2023-01-05T20:21:50.996Z,8.50
2023-01-05T20:24:19.364Z,8.50
2023-01-05T20:26:46.584Z,8.50
2023-01-05T20:29:14.334Z,8.50
2023-01-05T20:31:45.698Z,8.50
2023-01-05T20:34:15.453Z,8.50
2023-01-05T20:36:42.108Z,8.50
2023-01-05T20:39:09.618Z,8.50
2023-01-05T20:41:38.211Z,8.50
2023-01-05T20:44:05.327Z,8.50
2023-01-05T20:46:34.100Z,8.50
2023-01-05T20:49:00.910Z,8.50
2023-01-05T20:51:27.759Z,8.50
2023-01-05T20:53:54.612Z,8.50
2023-01-05T20:56:23.613Z,8.50
2023-01-05T20:58:51.345Z,8.50
2023-01-05T21:01:17.994Z,8.50
2023-01-05T21:03:44.897Z,8.50
2023-01-05T21:06:13.122Z,8.50
2023-01-05T21:08:39.851Z,8.50
2023-01-05T21:11:06.885Z,8.40
2023-01-05T21:13:33.558Z,8.40
2023-01-05T21:16:04.371Z,8.40
2023-01-05T21:18:31.877Z,8.50
2023-01-05T21:20:58.623Z,8.40
2023-01-05T21:23:25.291Z,8.40
2023-01-05T21:26:05.702Z,8.40
2023-01-05T21:28:38.026Z,8.50
2023-01-05T21:31:06.333Z,8.50
2023-01-05T21:33:33.156Z,8.50
2023-01-05T21:35:59.868Z,8.50
2023-01-05T21:38:26.562Z,8.50
2023-01-05T21:41:13.239Z,8.50
2023-01-05T21:43:39.904Z,8.50
2023-01-05T21:46:08.497Z,8.50
2023-01-05T21:48:35.933Z,8.40
2023-01-05T21:51:35.100Z,8.40
2023-01-05T21:54:20.168Z,8.40
2023-01-05T21:56:46.802Z,8.40
2023-01-05T21:59:13.444Z,8.50
2023-01-05T22:01:40.170Z,8.50
2023-01-05T22:04:06.915Z,8.50
2023-01-05T22:06:33.545Z,8.50
2023-01-05T22:09:00.158Z,8.50
2023-01-05T22:11:26.949Z,8.50
2023-01-05T22:13:53.583Z,8.50
2023-01-05T22:16:20.500Z,8.50
2023-01-05T22:18:47.148Z,8.50
2023-01-05T22:21:14.925Z,8.50
2023-01-05T22:23:41.744Z,8.50
2023-01-05T22:26:13.133Z,8.50
2023-01-05T22:28:40.613Z,8.50
2023-01-05T22:31:11.143Z,8.50
2023-01-05T22:33:39.622Z,8.50
2023-01-05T22:36:06.901Z,8.50
2023-01-05T22:38:39.709Z,8.50
2023-01-05T22:41:08.065Z,8.50
2023-01-05T22:43:36.718Z,8.50
2023-01-05T22:46:04.950Z,8.50
2023-01-05T22:48:35.741Z,8.50
2023-01-05T22:51:04.114Z,8.50
2023-01-05T22:53:30.957Z,8.50
2023-01-05T22:55:57.659Z,8.40
2023-01-05T22:58:24.279Z,8.40
2023-01-05T23:00:50.979Z,8.40
2023-01-05T23:03:17.624Z,8.40
2023-01-05T23:05:44.234Z,8.40
2023-01-05T23:08:11.071Z,8.50
2023-01-05T23:10:37.924Z,8.50
2023-01-05T23:13:04.638Z,8.60
2023-01-05T23:15:31.323Z,8.60
2023-01-05T23:17:57.919Z,8.70
2023-01-05T23:20:25.267Z,8.70
2023-01-05T23:22:51.937Z,8.70
2023-01-05T23:25:18.557Z,8.70
2023-01-05T23:27:45.356Z,8.70
2023-01-05T23:30:12.571Z,8.70
2023-01-05T23:32:39.196Z,8.70
2023-01-05T23:35:07.891Z,8.70
2023-01-05T23:37:34.660Z,8.70
2023-01-05T23:40:01.384Z,8.70
2023-01-05T23:42:46.435Z,8.70
2023-01-05T23:45:14.155Z,8.70
2023-01-05T23:47:40.787Z,8.70
2023-01-05T23:50:07.802Z,8.70
2023-01-05T23:52:34.405Z,8.70
2023-01-05T23:55:01.087Z,8.80
2023-01-05T23:57:29.761Z,8.80
2023-01-05T23:59:56.493Z,8.80
